Time;durP1;ratioP1;P1;durP2;ratioP2;P2;SDS_P1;SDS_P2;PMS_P1;PMS_P2;Temp;Humidity;BMP_temperature;BMP_pressure;BME280_temperature;BME280_humidity;BME280_pressure;Samples;Min_cycle;Max_cycle;Signal;HPM_P1;HPM_P2
2022/08/31 00:04:04;;;;;;;3.80;1.63;;;;;;;10.66;100.00;102193.34;5013908;28;20040;-77
2022/08/31 00:06:31;;;;;;;3.95;2.00;;;;;;;10.68;100.00;102196.75;5031827;28;20032;-78
2022/08/31 00:08:58;;;;;;;3.35;1.80;;;;;;;10.67;100.00;102198.59;5033927;28;20502;-80
2022/08/31 00:11:29;;;;;;;3.70;1.95;;;;;;;10.61;100.00;102203.66;5032954;28;20430;-79
2022/08/31 00:13:57;;;;;;;5.55;2.05;;;;;;;10.54;100.00;102206.94;5032933;28;20075;-83
2022/08/31 00:16:24;;;;;;;4.90;2.05;;;;;;;10.34;100.00;102183.69;5028933;28;20467;-82
2022/08/31 00:18:52;;;;;;;3.13;1.90;;;;;;;10.42;100.00;102205.34;5012534;28;20033;-77
2022/08/31 00:21:24;;;;;;;6.00;2.30;;;;;;;10.35;100.00;102201.53;5014592;28;20051;-83
2022/08/31 00:23:51;;;;;;;2.90;1.77;;;;;;;10.30;100.00;102203.78;5023895;28;20075;-81
2022/08/31 00:26:16;;;;;;;5.38;2.20;;;;;;;10.21;100.00;102202.72;5022728;28;20467;-81
2022/08/31 00:28:43;;;;;;;3.28;2.13;;;;;;;10.16;100.00;102209.50;4995880;28;20079;-82
2022/08/31 00:31:09;;;;;;;3.63;2.38;;;;;;;10.10;100.00;102202.84;5025454;28;20030;-85
2022/08/31 00:33:38;;;;;;;2.58;1.88;;;;;;;10.01;100.00;102215.28;4999131;28;20045;-83
2022/08/31 00:36:05;;;;;;;2.90;2.03;;;;;;;9.90;100.00;102204.63;5033973;28;20084;-82
2022/08/31 00:38:31;;;;;;;3.72;1.95;;;;;;;9.79;100.00;102194.84;5030736;28;20033;-83
2022/08/31 00:40:57;;;;;;;3.72;1.90;;;;;;;9.84;100.00;102213.22;5017118;28;20037;-81
2022/08/31 00:43:44;;;;;;;3.30;2.03;;;;;;;9.83;100.00;102219.59;5000685;28;20033;-77
2022/08/31 00:46:13;;;;;;;3.15;1.92;;;;;;;9.82;100.00;102221.44;5005780;28;20512;-84
2022/08/31 00:48:54;;;;;;;4.38;2.33;;;;;;;9.80;100.00;102220.72;5001184;28;20041;-78
2022/08/31 00:51:19;;;;;;;3.63;1.92;;;;;;;9.79;100.00;102221.72;5035874;28;20128;-80
2022/08/31 00:53:46;;;;;;;3.50;2.22;;;;;;;9.85;100.00;102226.53;5021020;28;20116;-78
2022/08/31 00:56:13;;;;;;;3.63;2.30;;;;;;;9.91;100.00;102225.13;5034958;28;20040;-80
2022/08/31 00:58:38;;;;;;;6.30;2.65;;;;;;;9.99;100.00;102222.63;5036973;28;20513;-83
2022/08/31 01:01:07;;;;;;;6.60;2.42;;;;;;;10.05;100.00;102224.75;5022085;28;20041;-84
2022/08/31 01:03:33;;;;;;;5.72;2.38;;;;;;;10.06;100.00;102223.78;5003507;28;20394;-79
2022/08/31 01:05:58;;;;;;;6.20;2.40;;;;;;;10.03;100.00;102218.69;5001022;28;20044;-82
2022/08/31 01:08:24;;;;;;;4.57;2.65;;;;;;;9.95;100.00;102212.28;5010742;28;20045;-83
2022/08/31 01:10:50;;;;;;;6.15;2.28;;;;;;;9.91;100.00;102225.13;5008743;28;20044;-78
2022/08/31 01:13:16;;;;;;;4.47;2.25;;;;;;;9.86;100.00;102222.84;5042447;28;20029;-84
2022/08/31 01:15:46;;;;;;;6.20;2.63;;;;;;;9.88;100.00;102223.56;5028892;28;20515;-82
2022/08/31 01:18:12;;;;;;;6.15;2.20;;;;;;;9.80;100.00;102212.66;5042387;28;20415;-80
2022/08/31 01:20:50;;;;;;;7.18;2.80;;;;;;;9.75;100.00;102214.88;5013157;28;20049;-82
2022/08/31 01:23:37;;;;;;;6.78;2.63;;;;;;;9.69;100.00;102221.66;5037347;28;20464;-84
2022/08/31 01:26:03;;;;;;;5.65;2.65;;;;;;;9.69;100.00;102221.66;5013603;28;20037;-85
2022/08/31 01:28:29;;;;;;;4.53;2.60;;;;;;;9.66;100.00;102219.25;5031636;28;20060;-84
2022/08/31 01:30:59;;;;;;;6.78;2.50;;;;;;;9.56;100.00;102207.59;5033451;28;20056;-81
2022/08/31 01:33:25;;;;;;;5.05;2.50;;;;;;;9.65;100.00;102216.69;5016779;28;20025;-86
2022/08/31 01:35:51;;;;;;;4.18;2.53;;;;;;;9.54;100.00;102214.94;5016101;28;20319;-78
2022/08/31 01:38:17;;;;;;;4.45;1.95;;;;;;;9.53;100.00;102220.44;4999822;28;20033;-77
2022/08/31 01:40:53;;;;;;;5.75;2.20;;;;;;;9.40;100.00;102213.44;5015187;28;20037;-79
2022/08/31 01:43:19;;;;;;;4.40;2.10;;;;;;;9.41;100.00;102216.97;5033780;28;20100;-79
2022/08/31 01:45:45;;;;;;;4.97;3.00;;;;;;;9.35;100.00;102221.03;4998451;28;20025;-84
2022/08/31 01:48:11;;;;;;;3.70;2.47;;;;;;;9.29;100.00;102221.59;4999689;28;20485;-83
2022/08/31 01:50:37;;;;;;;6.78;2.25;;;;;;;9.27;100.00;102215.50;4999795;28;20383;-81
2022/08/31 01:53:03;;;;;;;6.10;2.50;;;;;;;9.27;100.00;102230.75;5000847;28;20104;-83
2022/08/31 01:55:28;;;;;;;5.20;2.67;;;;;;;9.21;100.00;102214.19;5015420;28;20040;-85
2022/08/31 01:57:57;;;;;;;5.60;2.80;;;;;;;9.34;100.00;102227.41;5039206;28;20494;-82
2022/08/31 02:00:22;;;;;;;4.10;2.50;;;;;;;9.23;100.00;102214.03;5015648;28;20025;-81
2022/08/31 02:02:48;;;;;;;6.00;2.67;;;;;;;9.37;100.00;102212.88;5039336;28;20044;-79
2022/08/31 02:05:14;;;;;;;5.10;2.65;;;;;;;9.49;100.00;102219.00;5000625;28;20045;-84
2022/08/31 02:07:40;;;;;;;5.22;2.55;;;;;;;9.58;100.00;102218.19;5006188;28;20033;-82
2022/08/31 02:10:07;;;;;;;4.80;2.25;;;;;;;9.65;100.00;102220.22;5015884;28;20052;-85
2022/08/31 02:12:32;;;;;;;7.43;2.63;;;;;;;9.69;100.00;102221.66;5032019;28;20041;-77
2022/08/31 02:14:58;;;;;;;9.30;2.75;;;;;;;9.75;100.00;102222.94;5015965;28;20030;-79
2022/08/31 02:17:24;;;;;;;6.28;2.40;;;;;;;9.76;100.00;102208.53;5000278;28;20041;-82
2022/08/31 02:19:49;;;;;;;5.15;2.15;;;;;;;9.97;100.00;102227.28;5013623;28;20065;-78
2022/08/31 02:22:15;;;;;;;5.07;2.40;;;;;;;10.01;100.00;102215.28;5024312;28;20034;-86
2022/08/31 02:24:41;;;;;;;5.03;2.50;;;;;;;10.12;100.00;102217.00;5025943;28;20044;-83
2022/08/31 02:27:06;;;;;;;5.97;2.80;;;;;;;10.09;100.00;102206.53;5004122;28;20120;-83
2022/08/31 02:29:34;;;;;;;4.00;2.30;;;;;;;10.29;100.00;102219.06;5014235;28;20037;-85
2022/08/31 02:31:59;;;;;;;4.95;2.92;;;;;;;10.35;100.00;102217.66;5015243;28;20499;-80
2022/08/31 02:34:25;;;;;;;4.88;2.30;;;;;;;10.40;100.00;102210.03;5000116;28;20091;-79
2022/08/31 02:36:51;;;;;;;6.93;2.40;;;;;;;10.42;100.00;102210.72;5031408;28;20026;-82
2022/08/31 02:39:16;;;;;;;5.47;2.65;;;;;;;10.44;100.00;102213.28;5010673;28;20033;-84
2022/08/31 02:41:42;;;;;;;5.90;2.53;;;;;;;10.46;100.00;102219.38;5031084;28;20075;-83
2022/08/31 02:44:08;;;;;;;5.72;2.55;;;;;;;10.43;100.00;102209.75;4999273;28;20395;-83
2022/08/31 02:46:33;;;;;;;4.28;2.30;;;;;;;10.44;100.00;102222.19;5013773;28;20037;-82
2022/08/31 02:49:00;;;;;;;5.57;2.38;;;;;;;10.34;100.00;102207.88;5040381;28;20425;-82
2022/08/31 02:51:26;;;;;;;4.68;2.17;;;;;;;10.27;100.00;102206.72;5038147;28;20029;-84
2022/08/31 02:53:51;;;;;;;6.18;2.10;;;;;;;10.25;100.00;102214.91;4996512;28;20057;-79
2022/08/31 02:56:17;;;;;;;5.18;1.90;;;;;;;10.24;100.00;102209.66;5014154;28;20042;-83
2022/08/31 02:58:43;;;;;;;5.07;2.40;;;;;;;10.24;100.00;102213.22;5024616;28;20116;-78
2022/08/31 03:01:08;;;;;;;8.20;2.58;;;;;;;10.29;100.00;102218.19;5000662;28;20067;-81
2022/08/31 03:03:34;;;;;;;4.43;2.42;;;;;;;10.29;100.00;102202.06;5020302;28;20029;-86
2022/08/31 03:06:01;;;;;;;7.70;2.35;;;;;;;10.34;100.00;102205.19;5035345;28;20083;-81
2022/08/31 03:08:27;;;;;;;5.15;2.58;;;;;;;10.38;100.00;102205.78;4996013;28;20523;-85
2022/08/31 03:10:53;;;;;;;3.35;1.75;;;;;;;10.44;100.00;102214.13;5042012;28;20025;-78
2022/08/31 03:13:19;;;;;;;5.13;2.35;;;;;;;10.50;100.00;102215.41;5029484;28;20105;-84
2022/08/31 03:15:45;;;;;;;4.47;2.10;;;;;;;10.39;100.00;102181.44;4995939;28;20121;-84
2022/08/31 03:18:10;;;;;;;5.20;1.80;;;;;;;10.54;100.00;102201.56;5028274;28;20576;-86
2022/08/31 03:20:36;;;;;;;8.80;2.15;;;;;;;10.59;100.00;102203.81;5019597;28;20475;-82
2022/08/31 03:23:02;;;;;;;5.35;2.22;;;;;;;10.55;100.00;102208.63;5001776;28;20483;-81
2022/08/31 03:25:28;;;;;;;5.10;2.15;;;;;;;10.56;100.00;102201.41;5011802;28;20025;-80
2022/08/31 03:27:53;;;;;;;7.07;3.00;;;;;;;10.65;100.00;102207.78;5007979;28;20069;-84
2022/08/31 03:30:21;;;;;;;4.80;2.30;;;;;;;10.65;100.00;102210.47;5012194;28;20053;-82
2022/08/31 03:32:47;;;;;;;13.43;2.75;;;;;;;10.64;100.00;102206.06;5022870;28;20045;-84
2022/08/31 03:35:13;;;;;;;5.90;2.80;;;;;;;10.67;100.00;102211.19;5014051;28;20096;-82
2022/08/31 03:37:39;;;;;;;3.85;1.80;;;;;;;10.68;100.00;102200.28;4997694;28;20091;-83
2022/08/31 03:40:07;;;;;;;6.65;2.53;;;;;;;10.65;100.00;102194.34;4997679;28;20033;-82
2022/08/31 03:42:32;;;;;;;3.28;1.88;;;;;;;10.63;100.00;102193.63;5029556;28;20056;-81
2022/08/31 03:44:58;;;;;;;7.43;2.65;;;;;;;10.63;100.00;102194.47;5031723;28;20463;-81
2022/08/31 03:47:24;;;;;;;3.15;1.73;;;;;;;10.58;100.00;102202.09;5013121;28;20033;-80
2022/08/31 03:49:50;;;;;;;4.60;2.28;;;;;;;10.60;100.00;102193.91;5006707;28;20395;-80
2022/08/31 03:52:16;;;;;;;3.35;2.00;;;;;;;10.54;100.00;102182.72;5014440;28;20029;-80
2022/08/31 03:54:42;;;;;;;4.82;2.20;;;;;;;10.55;100.00;102187.09;4996065;28;20033;-83
2022/08/31 03:57:08;;;;;;;3.67;2.10;;;;;;;10.59;100.00;102197.59;4999869;28;20076;-85
2022/08/31 03:59:34;;;;;;;5.63;2.17;;;;;;;10.51;100.00;102195.63;5032395;28;20061;-82
2022/08/31 04:02:00;;;;;;;4.68;1.73;;;;;;;10.56;100.00;102186.13;4997863;28;20033;-80
2022/08/31 04:04:25;;;;;;;4.85;2.55;;;;;;;10.48;100.00;102180.59;4997831;28;20435;-85
2022/08/31 04:06:51;;;;;;;6.55;2.00;;;;;;;10.49;100.00;102193.06;5017088;28;20037;-83
2022/08/31 04:09:17;;;;;;;2.45;1.35;;;;;;;10.49;100.00;102189.50;4997422;28;20041;-82
2022/08/31 04:11:43;;;;;;;5.55;2.45;;;;;;;10.47;100.00;102189.66;5016665;28;20029;-82
2022/08/31 04:14:10;;;;;;;5.68;2.47;;;;;;;10.35;100.00;102193.47;5028769;28;20558;-85
2022/08/31 04:16:38;;;;;;;4.43;2.30;;;;;;;10.21;100.00;102193.81;4999464;28;20723;-81
2022/08/31 04:19:05;;;;;;;3.65;2.28;;;;;;;10.01;100.00;102196.47;5032329;28;20493;-80
2022/08/31 04:21:30;;;;;;;6.70;2.47;;;;;;;9.83;100.00;102196.25;5025614;28;20113;-81
2022/08/31 04:23:58;;;;;;;5.43;2.30;;;;;;;9.65;100.00;102204.09;5003560;28;20120;-79
2022/08/31 04:26:29;;;;;;;5.40;2.42;;;;;;;9.50;100.00;102200.09;5036426;28;20032;-85
2022/08/31 04:28:55;;;;;;;4.13;2.30;;;;;;;9.48;100.00;102209.25;5036725;28;20044;-80
2022/08/31 04:31:23;;;;;;;6.50;2.30;;;;;;;9.28;100.00;102200.22;5036404;28;20107;-83
2022/08/31 04:33:49;;;;;;;5.80;2.60;;;;;;;9.21;100.00;102206.13;5014837;28;20041;-82
2022/08/31 04:36:20;;;;;;;6.07;2.92;;;;;;;9.20;100.00;102204.41;5019610;28;20029;-84
2022/08/31 04:38:48;;;;;;;3.97;2.25;;;;;;;9.28;100.00;102213.66;5030377;28;20034;-84
2022/08/31 04:41:16;;;;;;;5.78;2.50;;;;;;;9.36;100.00;102213.84;5038442;28;20120;-82
2022/08/31 04:43:44;;;;;;;5.03;2.17;;;;;;;9.37;100.00;102200.28;5031288;28;20037;-87
2022/08/31 04:46:10;;;;;;;7.28;3.15;;;;;;;9.46;100.00;102202.16;5028313;28;20041;-86
2022/08/31 04:48:38;;;;;;;5.78;1.77;;;;;;;9.53;100.00;102205.19;5012866;28;20498;-84
2022/08/31 04:51:16;;;;;;;3.88;2.20;;;;;;;9.55;100.00;102197.84;5005147;28;20033;-85
2022/08/31 04:53:42;;;;;;;8.45;2.95;;;;;;;9.63;100.00;102205.22;4994398;28;20718;-82
2022/08/31 04:56:13;;;;;;;4.00;2.42;;;;;;;9.61;100.00;102194.63;5031156;28;20043;-83
2022/08/31 04:58:44;;;;;;;7.00;3.42;;;;;;;9.67;100.00;102191.38;5031137;28;20482;-85
2022/08/31 05:01:12;;;;;;;4.80;2.67;;;;;;;9.84;100.00;102197.09;5030694;28;20037;-85
2022/08/31 05:03:38;;;;;;;5.97;2.70;;;;;;;9.79;100.00;102189.47;5031142;28;20048;-79
2022/08/31 05:06:04;;;;;;;7.70;2.90;;;;;;;9.77;100.00;102204.03;5013104;28;20033;-86
2022/08/31 05:08:37;;;;;;;7.70;3.00;;;;;;;9.68;100.00;102202.97;4995053;28;20033;-85
2022/08/31 05:14:42;;;;;;;5.90;2.97;;;;;;;9.08;100.00;102148.28;4990506;28;20097;-80
2022/08/31 05:17:34;;;;;;;8.35;2.92;;;;;;;9.00;100.00;102181.97;4985611;28;20092;-80
2022/08/31 05:20:31;;;;;;;9.60;3.10;;;;;;;8.77;100.00;102157.09;5030828;28;20037;-83
2022/08/31 05:23:13;;;;;;;7.82;2.85;;;;;;;8.65;100.00;102160.81;5000668;28;20053;-86
2022/08/31 05:25:39;;;;;;;6.20;2.97;;;;;;;8.96;100.00;102214.56;4999251;28;20033;-84
2022/08/31 05:28:06;;;;;;;9.90;3.13;;;;;;;9.02;100.00;102212.22;5032207;28;20033;-84
2022/08/31 05:30:32;;;;;;;6.50;3.25;;;;;;;9.04;100.00;102212.06;5000453;28;20033;-81
2022/08/31 05:32:58;;;;;;;6.90;3.30;;;;;;;8.90;100.00;102201.66;5014622;28;20044;-83
2022/08/31 05:35:23;;;;;;;8.13;3.15;;;;;;;8.88;100.00;102214.34;5032319;28;20025;-82
2022/08/31 05:37:50;;;;;;;10.50;3.50;;;;;;;8.96;100.00;102222.59;5032487;28;20033;-80
2022/08/31 05:40:16;;;;;;;9.15;3.72;;;;;;;8.86;100.00;102222.53;5003849;28;20114;-81
2022/08/31 05:42:41;;;;;;;5.72;2.60;;;;;;;8.87;100.00;102224.25;5032778;28;20161;-84
2022/08/31 05:45:07;;;;;;;11.70;3.88;;;;;;;8.97;100.00;102222.50;5029730;28;20051;-83
2022/08/31 05:47:33;;;;;;;8.75;4.05;;;;;;;9.01;100.00;102223.91;5016394;28;20049;-87
2022/08/31 05:49:59;;;;;;;8.82;3.70;;;;;;;8.91;100.00;102228.34;5000593;28;20029;-85
2022/08/31 05:52:24;;;;;;;9.50;4.43;;;;;;;8.89;100.00;102227.66;5032617;28;20032;-81
2022/08/31 05:54:50;;;;;;;8.73;4.07;;;;;;;8.89;100.00;102226.78;5033386;28;20391;-81
2022/08/31 05:57:15;;;;;;;9.60;4.50;;;;;;;8.91;100.00;102222.97;4999535;28;20025;-81
2022/08/31 05:59:41;;;;;;;7.13;3.90;;;;;;;8.92;100.00;102219.34;5001399;28;20088;-87
2022/08/31 06:02:09;;;;;;;8.40;4.13;;;;;;;8.99;100.00;102219.66;5033552;28;20026;-82
2022/08/31 06:04:35;;;;;;;10.70;5.05;;;;;;;9.21;100.00;102226.75;5038845;28;20471;-80
2022/08/31 06:07:00;;;;;;;8.85;4.10;;;;;;;9.39;100.00;102219.81;4997712;28;20103;-78
2022/08/31 06:09:26;;;;;;;14.70;5.30;;;;;;;9.58;100.00;102226.25;4999377;28;20026;-85
2022/08/31 06:11:53;;;;;;;13.07;5.10;;;;;;;9.75;100.00;102222.09;5019211;28;20028;-78
2022/08/31 06:14:21;;;;;;;9.85;4.78;;;;;;;9.95;100.00;102228.38;5017400;28;20035;-82
2022/08/31 06:16:47;;;;;;;17.00;6.30;;;;;;;10.20;100.00;102237.81;5012595;28;20037;-83
2022/08/31 06:19:13;;;;;;;22.15;8.98;;;;;;;10.40;100.00;102236.94;5015981;28;20458;-86
2022/08/31 06:21:41;;;;;;;16.33;6.88;;;;;;;10.51;100.00;102227.88;5018512;28;20037;-80
2022/08/31 06:24:09;;;;;;;16.92;7.13;;;;;;;10.49;100.00;102214.56;5036500;28;20029;-84
2022/08/31 06:26:37;;;;;;;19.38;8.02;;;;;;;10.64;100.00;102228.47;5030510;28;20099;-78
2022/08/31 06:29:07;;;;;;;13.65;7.05;;;;;;;10.72;100.00;102207.09;5000618;28;20044;-82
2022/08/31 06:31:37;;;;;;;16.98;7.30;;;;;;;11.00;100.00;102223.34;5017754;28;20091;-85
2022/08/31 06:34:07;;;;;;;18.73;6.68;;;;;;;11.12;100.00;102218.69;5033271;28;20025;-82
2022/08/31 06:36:34;;;;;;;30.90;12.77;;;;;;;11.26;100.00;102220.06;5021669;28;20045;-79
2022/08/31 06:39:01;;;;;;;24.63;9.32;;;;;;;11.38;100.00;102224.31;5019842;28;20033;-79
2022/08/31 06:41:30;;;;;;;20.75;9.88;;;;;;;11.54;100.00;102218.31;5042195;28;20029;-79
2022/08/31 06:43:59;;;;;;;25.42;10.50;;;;;;;11.81;100.00;102218.34;5043203;28;20017;-80
2022/08/31 06:46:25;;;;;;;33.40;11.90;;;;;;;11.88;100.00;102205.16;5031454;28;20029;-82
2022/08/31 06:48:57;;;;;;;21.65;8.95;;;;;;;11.93;100.00;102197.47;5033184;28;20033;-82
2022/08/31 06:51:23;;;;;;;29.85;11.68;;;;;;;12.18;100.00;102225.59;5014117;28;20514;-82
2022/08/31 06:53:51;;;;;;;28.10;9.07;;;;;;;12.16;100.00;102232.97;5030043;28;20111;-81
2022/08/31 06:56:24;;;;;;;36.92;16.45;;;;;;;12.22;100.00;102212.63;5022724;28;20463;-84
2022/08/31 06:58:51;;;;;;;36.05;11.82;;;;;;;12.34;100.00;102230.31;5027954;28;20052;-83
2022/08/31 07:01:27;;;;;;;36.45;13.85;;;;;;;12.54;100.00;102231.03;5009136;28;20091;-78
2022/08/31 07:03:58;;;;;;;36.25;11.80;;;;;;;12.77;100.00;102232.25;5027685;28;20025;-83
2022/08/31 07:06:44;;;;;;;33.63;17.90;;;;;;;12.87;100.00;102210.59;5028091;28;20025;-81
2022/08/31 07:09:14;;;;;;;39.47;16.20;;;;;;;12.97;100.00;102210.53;4982761;28;20048;-84
2022/08/31 07:11:45;;;;;;;33.47;11.93;;;;;;;13.46;100.00;102237.91;5027585;28;20465;-85
2022/08/31 07:14:13;;;;;;;29.77;10.15;;;;;;;13.75;100.00;102237.59;5054269;28;20025;-79
2022/08/31 07:16:40;;;;;;;31.05;11.27;;;;;;;13.84;100.00;102242.03;5001323;28;20068;-88
2022/08/31 07:19:06;;;;;;;35.80;12.10;;;;;;;13.97;100.00;102247.03;5027874;28;20039;-84
2022/08/31 07:21:46;;;;;;;30.73;11.15;;;;;;;14.13;100.00;102243.53;4995239;28;20025;-85
2022/08/31 07:24:14;;;;;;;32.88;11.75;;;;;;;15.16;100.00;102245.94;5028076;28;20036;-88
2022/08/31 07:26:43;;;;;;;28.23;10.73;;;;;;;16.11;95.55;102237.94;5028324;28;20061;-88
2022/08/31 07:29:10;;;;;;;29.80;12.05;;;;;;;16.87;91.12;102235.50;5024723;28;20037;-89
2022/08/31 07:31:45;;;;;;;30.23;11.77;;;;;;;17.61;85.18;102241.13;5023787;28;20040;-87
2022/08/31 07:34:25;;;;;;;28.75;11.27;;;;;;;18.06;80.89;102242.00;5011038;28;20030;-78
2022/08/31 07:42:28;;;;;;;16.73;7.95;;;;;;;18.68;76.05;102244.22;5025492;28;20399;-73
2022/08/31 07:44:56;;;;;;;19.15;7.90;;;;;;;18.61;73.52;102237.84;4993351;28;20045;-73
2022/08/31 07:47:24;;;;;;;12.25;6.65;;;;;;;18.73;73.81;102251.78;5023701;28;20124;-74
2022/08/31 07:49:52;;;;;;;16.17;9.02;;;;;;;18.48;72.86;102210.47;5026836;28;20056;-75
2022/08/31 07:52:22;;;;;;;15.60;9.15;;;;;;;18.63;74.85;102227.59;5025454;28;20275;-75
2022/08/31 07:54:49;;;;;;;18.65;10.10;;;;;;;19.10;73.12;102248.00;5012339;28;20033;-75
2022/08/31 07:57:17;;;;;;;17.55;9.18;;;;;;;19.29;70.50;102235.59;4989595;28;20065;-76
2022/08/31 07:59:48;;;;;;;18.13;7.97;;;;;;;19.70;71.17;102251.22;5028595;28;20064;-75
2022/08/31 08:02:15;;;;;;;15.82;9.65;;;;;;;20.25;68.57;102245.00;5026226;28;20498;-75
2022/08/31 08:04:42;;;;;;;15.38;7.70;;;;;;;20.62;65.84;102252.72;5012106;28;20125;-75
2022/08/31 08:07:10;;;;;;;16.40;7.88;;;;;;;20.87;63.86;102241.19;5008268;28;20494;-75
2022/08/31 08:09:36;;;;;;;13.35;7.05;;;;;;;21.10;60.82;102253.63;5012631;28;20048;-74
2022/08/31 08:12:05;;;;;;;13.77;8.02;;;;;;;21.39;61.43;102252.41;4995296;28;20042;-75
2022/08/31 08:14:33;;;;;;;10.60;6.22;;;;;;;21.85;59.71;102251.47;5025655;28;20383;-76
2022/08/31 08:16:59;;;;;;;12.48;7.63;;;;;;;22.01;57.70;102251.00;5009820;28;20281;-74
2022/08/31 08:19:25;;;;;;;10.13;6.10;;;;;;;22.37;56.00;102255.94;5007674;28;20037;-74
2022/08/31 08:21:50;;;;;;;11.80;7.35;;;;;;;22.70;53.57;102257.66;4994415;28;20091;-75
2022/08/31 08:24:19;;;;;;;11.18;6.63;;;;;;;23.06;51.69;102258.09;4994734;28;20029;-75
2022/08/31 08:26:49;;;;;;;7.70;5.63;;;;;;;23.23;50.40;102249.09;4994110;28;20383;-76
2022/08/31 08:29:16;;;;;;;12.32;6.07;;;;;;;23.59;52.43;102258.47;5043544;28;20045;-75
2022/08/31 08:31:42;;;;;;;8.52;5.90;;;;;;;24.10;50.13;102259.19;5022632;28;20128;-76
2022/08/31 08:34:09;;;;;;;12.23;6.10;;;;;;;24.36;49.34;102250.63;5024321;28;20036;-76
2022/08/31 08:36:36;;;;;;;10.52;6.03;;;;;;;24.54;48.24;102251.69;5024190;28;20083;-73
2022/08/31 08:39:06;;;;;;;7.93;5.20;;;;;;;24.65;45.48;102250.88;5024433;28;20037;-74
2022/08/31 08:41:34;;;;;;;10.88;5.38;;;;;;;24.70;46.87;102256.53;5012888;28;20025;-74
2022/08/31 08:44:03;;;;;;;11.18;8.05;;;;;;;25.07;46.51;102263.81;4999076;28;20063;-76
2022/08/31 08:46:38;;;;;;;5.80;3.45;;;;;;;25.52;41.98;102241.25;4996315;28;20133;-77
2022/08/31 08:49:27;;;;;;;6.88;4.68;;;;;;;25.51;43.63;102258.84;5028830;28;20037;-74
2022/08/31 08:52:02;;;;;;;6.03;4.18;;;;;;;25.92;43.46;102254.28;5028801;28;20463;-74
2022/08/31 08:54:31;;;;;;;6.32;4.38;;;;;;;26.35;40.83;102255.72;5027397;28;20522;-74
2022/08/31 08:56:58;;;;;;;5.60;4.05;;;;;;;26.20;40.25;102261.78;5000422;28;20125;-78
2022/08/31 08:59:24;;;;;;;6.47;3.92;;;;;;;26.32;41.10;102257.88;5030028;28;20036;-76
2022/08/31 09:01:52;;;;;;;6.15;3.97;;;;;;;26.67;40.12;102254.16;5034021;28;20502;-75
2022/08/31 09:04:40;;;;;;;8.23;4.13;;;;;;;26.78;39.43;102246.94;5031306;28;20038;-76
2022/08/31 09:07:25;;;;;;;5.38;3.78;;;;;;;27.07;39.75;102266.19;5033980;28;20055;-75
2022/08/31 09:09:56;;;;;;;8.98;4.07;;;;;;;27.18;39.61;102259.78;5011150;28;20033;-76
2022/08/31 09:12:30;;;;;;;6.28;4.20;;;;;;;27.26;38.77;102259.38;5029792;28;20037;-76
2022/08/31 09:15:16;;;;;;;6.03;3.20;;;;;;;27.65;36.08;102258.56;5010692;28;20026;-74
2022/08/31 09:18:33;;;;;;;5.47;3.10;;;;;;;27.65;35.53;102262.16;5031871;28;20079;-76
2022/08/31 09:21:03;;;;;;;3.40;2.70;;;;;;;27.11;37.21;102257.16;4987244;28;20069;-76
2022/08/31 09:23:33;;;;;;;8.48;3.60;;;;;;;26.91;38.35;102262.31;5026471;28;20041;-74
2022/08/31 09:26:01;;;;;;;5.65;3.35;;;;;;;27.10;39.09;102252.72;5025834;28;20116;-75
2022/08/31 09:28:37;;;;;;;5.05;2.97;;;;;;;27.53;38.74;102259.50;5028793;28;20441;-74
2022/08/31 09:31:03;;;;;;;3.50;2.90;;;;;;;28.15;37.03;102247.38;5016080;28;20116;-75
2022/08/31 09:33:32;;;;;;;4.10;3.05;;;;;;;28.15;36.43;102246.53;5015658;28;20510;-76
2022/08/31 09:36:21;;;;;;;5.95;2.80;;;;;;;28.10;35.68;102258.38;5032823;28;20026;-74
2022/08/31 09:38:47;;;;;;;7.82;3.65;;;;;;;28.18;34.59;102254.31;5032126;28;20022;-76
2022/08/31 09:41:28;;;;;;;6.00;2.85;;;;;;;27.93;35.42;102255.66;5032403;28;20060;-74
2022/08/31 09:43:55;;;;;;;6.53;3.42;;;;;;;27.83;35.00;102242.53;5031704;28;20113;-75
2022/08/31 09:46:27;;;;;;;4.53;3.08;;;;;;;28.18;36.33;102246.03;5015839;28;20033;-75
2022/08/31 09:48:58;;;;;;;4.20;2.75;;;;;;;28.99;34.50;102242.47;5015974;28;20021;-78
2022/08/31 09:51:31;;;;;;;3.90;2.60;;;;;;;29.18;33.44;102232.66;5007344;28;20364;-75
2022/08/31 09:56:59;;;;;;;9.02;2.78;;;;;;;29.33;33.53;102240.25;5025671;28;20039;-76
2022/08/31 09:59:32;;;;;;;4.30;2.65;;;;;;;29.76;32.66;102236.38;5030702;28;20617;-75
2022/08/31 10:02:01;;;;;;;5.97;2.72;;;;;;;29.86;32.74;102234.78;5021472;28;20036;-74
2022/08/31 10:04:35;;;;;;;7.07;2.50;;;;;;;29.90;32.45;102230.34;5037880;28;20080;-75
2022/08/31 10:07:47;;;;;;;7.43;2.63;;;;;;;30.08;31.41;102231.81;5027579;28;20042;-75
2022/08/31 10:10:23;;;;;;;3.35;2.17;;;;;;;30.20;30.38;102230.47;5009286;28;20542;-75
2022/08/31 10:13:24;;;;;;;2.65;2.15;;;;;;;30.04;30.99;102234.31;5024625;28;20305;-75
2022/08/31 10:15:56;;;;;;;;;;;;;;;30.19;30.87;102230.72;5013712;28;20475;-77
2022/08/31 10:18:33;;;;;;;4.10;1.90;;;;;;;30.05;29.89;102216.53;5009510;28;20077;-74
2022/08/31 10:21:08;;;;;;;4.10;2.63;;;;;;;29.85;30.65;102219.22;4999589;28;20041;-75
2022/08/31 10:23:53;;;;;;;3.47;2.15;;;;;;;30.20;30.64;102215.78;5003443;28;20037;-75
2022/08/31 10:26:32;;;;;;;6.63;2.30;;;;;;;30.64;29.82;102224.50;5015339;28;20040;-75
2022/08/31 10:29:04;;;;;;;5.70;2.30;;;;;;;30.98;29.18;102223.13;5037142;28;20410;-75
2022/08/31 10:31:44;;;;;;;5.30;2.40;;;;;;;30.68;27.50;102220.03;5016717;28;20053;-76
2022/08/31 10:37:13;;;;;;;6.15;2.80;;;;;;;30.39;29.22;102216.13;5024575;28;20524;-77
2022/08/31 10:39:44;;;;;;;6.40;2.40;;;;;;;30.27;29.77;102218.31;5033134;28;20033;-79
2022/08/31 10:42:16;;;;;;;4.32;2.28;;;;;;;31.03;29.31;102210.06;5027139;28;20399;-76
2022/08/31 10:44:55;;;;;;;3.85;2.40;;;;;;;31.59;28.44;102205.53;5003637;28;20045;-78
2022/08/31 10:47:22;;;;;;;4.53;2.17;;;;;;;31.47;28.48;102211.44;4996529;28;20391;-75
2022/08/31 10:49:54;;;;;;;2.95;2.50;;;;;;;32.36;26.91;102200.47;5031805;28;20067;-74
2022/08/31 10:52:35;;;;;;;4.20;2.78;;;;;;;32.02;28.43;102192.03;5031440;28;20395;-76
2022/08/31 10:55:31;;;;;;;2.88;2.60;;;;;;;32.26;28.62;102187.47;5032152;28;20068;-75
2022/08/31 10:58:18;;;;;;;3.03;2.30;;;;;;;33.20;26.58;102184.47;5027319;28;20489;-76
2022/08/31 11:01:26;;;;;;;2.88;2.05;;;;;;;33.25;26.94;102187.22;5012021;28;20044;-75
2022/08/31 11:04:12;;;;;;;4.55;2.60;;;;;;;31.60;29.12;102184.97;4964875;28;20082;-77
2022/08/31 11:06:49;;;;;;;5.43;2.55;;;;;;;30.94;28.86;102180.38;5014908;28;20057;-81
2022/08/31 11:09:25;;;;;;;3.53;2.60;;;;;;;30.84;30.18;102183.97;4993105;28;20036;-76
2022/08/31 11:12:05;;;;;;;5.22;2.40;;;;;;;33.12;26.42;102178.72;5026142;28;20076;-76
2022/08/31 11:15:08;;;;;;;3.20;2.08;;;;;;;34.40;24.42;102171.53;5030677;28;20101;-77
2022/08/31 11:17:50;;;;;;;4.35;2.45;;;;;;;35.66;22.81;102175.97;4997205;28;20049;-77
2022/08/31 11:20:28;;;;;;;4.68;2.28;;;;;;;34.78;24.74;102175.13;5017484;28;20034;-75
2022/08/31 11:23:31;;;;;;;6.40;2.42;;;;;;;34.39;24.27;102164.31;5013961;28;20112;-76
2022/08/31 11:26:34;;;;;;;3.78;2.45;;;;;;;34.54;23.30;102173.25;5029540;28;20373;-77
2022/08/31 11:29:13;;;;;;;5.15;2.50;;;;;;;34.74;23.18;102158.13;5008123;28;20045;-77
2022/08/31 11:31:40;;;;;;;4.40;2.40;;;;;;;35.41;22.08;102162.53;5029500;28;20497;-79
2022/08/31 11:34:14;;;;;;;2.75;1.65;;;;;;;34.41;22.48;102146.13;5027933;28;20091;-78
2022/08/31 11:36:59;;;;;;;2.95;1.80;;;;;;;32.56;24.89;102152.19;4996451;28;20033;-76
2022/08/31 11:39:44;;;;;;;2.38;1.65;;;;;;;30.80;26.83;102152.28;5016784;28;20037;-77
2022/08/31 11:42:17;;;;;;;2.38;2.10;;;;;;;27.68;31.71;102144.75;4993652;28;20060;-78
2022/08/31 11:44:46;;;;;;;3.90;1.40;;;;;;;27.77;31.17;102149.56;5013003;28;20025;-75
2022/08/31 11:47:27;;;;;;;2.20;1.77;;;;;;;30.44;28.58;102158.69;5028322;28;20033;-77
2022/08/31 11:50:02;;;;;;;2.63;1.90;;;;;;;32.23;26.30;102154.63;5032922;28;20045;-75
2022/08/31 11:52:42;;;;;;;3.05;1.75;;;;;;;32.93;25.02;102148.78;5033442;28;20039;-76